Time;durP1;ratioP1;P1;durP2;ratioP2;P2;SDS_P1;SDS_P2;PMS_P1;PMS_P2;Temp;Humidity;BMP_temperature;BMP_pressure;BME280_temperature;BME280_humidity;BME280_pressure;Samples;Min_cycle;Max_cycle;Signal;HPM_P1;HPM_P2
2022/02/20 00:01:23;;;;;;;4.20;3.03;;;6.10;94.80;;;7.09;51.20;97877.41;5143507;28;20296;-62
2022/02/20 00:03:59;;;;;;;3.90;2.93;;;6.10;94.80;;;7.01;51.35;97869.28;5140968;28;20593;-61
2022/02/20 00:06:32;;;;;;;4.37;3.00;;;6.10;94.90;;;6.99;51.88;97878.44;5143701;28;20211;-62
2022/02/20 00:09:06;;;;;;;4.90;3.30;;;6.10;94.90;;;6.97;52.02;97874.91;5141975;28;20211;-62
2022/02/20 00:11:39;;;;;;;4.53;3.40;;;6.10;95.20;;;6.95;51.76;97884.06;5142797;28;20203;-61
2022/02/20 00:14:12;;;;;;;3.83;2.93;;;6.20;94.70;;;6.91;52.13;97882.09;5138777;28;20231;-61
2022/02/20 00:16:45;;;;;;;6.50;3.50;;;6.10;95.20;;;6.90;51.53;97873.59;5140460;28;20211;-61
2022/02/20 00:19:20;;;;;;;3.57;3.23;;;6.00;95.10;;;6.96;51.67;97880.78;5137277;28;20216;-61
2022/02/20 00:21:53;;;;;;;4.90;3.37;;;6.10;95.30;;;6.92;52.55;97879.66;5142191;28;20202;-61
2022/02/20 00:24:27;;;;;;;4.23;3.27;;;6.10;95.50;;;6.91;53.05;97884.63;5142336;28;20665;-61
2022/02/20 00:27:00;;;;;;;3.60;3.30;;;6.00;95.50;;;7.08;51.89;97875.66;5139176;28;20210;-61
2022/02/20 00:29:33;;;;;;;4.23;3.00;;;6.10;95.50;;;7.08;51.77;97875.66;5135685;28;20319;-61
2022/02/20 00:32:07;;;;;;;5.77;3.43;;;6.00;95.30;;;6.93;52.87;97875.47;5138385;28;20553;-61
2022/02/20 00:34:42;;;;;;;5.50;3.13;;;6.00;95.60;;;6.97;52.12;97867.28;5141882;28;20200;-62
2022/02/20 00:37:15;;;;;;;4.70;2.80;;;6.00;95.60;;;6.96;53.08;97860.44;5142793;28;20217;-61
2022/02/20 00:39:48;;;;;;;4.90;2.97;;;6.00;95.90;;;6.95;52.29;97858.66;5141883;28;20698;-62
2022/02/20 00:42:21;;;;;;;6.67;3.10;;;6.00;95.80;;;6.94;53.46;97854.34;5141478;28;20220;-61
2022/02/20 00:44:54;;;;;;;5.67;3.40;;;6.00;96.20;;;6.91;53.07;97851.59;5143360;28;20200;-61
2022/02/20 00:47:28;;;;;;;5.63;3.23;;;6.10;96.00;;;7.01;52.31;97854.03;5140453;28;20204;-62
2022/02/20 00:50:02;;;;;;;4.83;3.20;;;6.10;95.60;;;6.98;53.89;97852.16;5139255;28;20192;-61
2022/02/20 00:52:35;;;;;;;5.13;3.10;;;6.10;96.10;;;7.06;53.30;97862.84;5140993;28;20231;-61
2022/02/20 00:55:10;;;;;;;5.93;3.77;;;6.20;96.40;;;7.08;53.57;97866.38;5143819;28;20214;-61
2022/02/20 00:57:43;;;;;;;5.50;3.17;;;6.20;96.20;;;7.10;53.43;97864.84;5139719;28;20564;-62
2022/02/20 01:00:16;;;;;;;4.17;3.33;;;6.20;96.40;;;7.00;54.00;97870.03;5136694;28;20224;-61
2022/02/20 01:02:49;;;;;;;5.63;3.07;;;6.10;96.80;;;7.11;54.03;97866.59;5140922;28;20231;-61
2022/02/20 01:05:25;;;;;;;5.67;3.10;;;6.20;96.40;;;7.14;54.27;97874.44;5141816;28;20208;-61
2022/02/20 01:07:58;;;;;;;5.63;2.87;;;6.30;96.50;;;7.08;54.69;97868.91;5142056;28;20212;-61
2022/02/20 01:10:31;;;;;;;3.50;3.00;;;6.10;96.90;;;6.99;54.77;97874.25;5138483;28;20453;-60
2022/02/20 01:13:04;;;;;;;5.47;3.37;;;6.20;97.20;;;7.10;54.69;97859.75;5138700;28;20223;-61
2022/02/20 01:15:37;;;;;;;3.97;3.03;;;6.20;97.40;;;7.11;54.79;97866.59;5137842;28;20208;-61
2022/02/20 01:18:10;;;;;;;4.50;2.63;;;6.20;97.10;;;7.00;55.41;97878.53;5141294;28;20208;-61
2022/02/20 01:20:45;;;;;;;5.57;2.60;;;6.30;97.50;;;7.00;55.13;97862.41;5139921;28;20219;-59
2022/02/20 01:23:18;;;;;;;6.40;3.00;;;6.20;97.30;;;7.17;55.29;97884.81;5146132;28;20230;-60
2022/02/20 01:25:55;;;;;;;4.73;2.57;;;6.20;97.40;;;7.14;55.81;97879.50;5134473;28;20258;-62
2022/02/20 01:28:28;;;;;;;5.83;2.87;;;6.30;97.70;;;7.09;55.99;97869.78;5140480;28;20204;-62
2022/02/20 01:31:01;;;;;;;4.43;2.63;;;6.40;97.70;;;7.06;56.06;97854.34;5141527;28;20558;-62
2022/02/20 01:33:34;;;;;;;5.40;2.93;;;6.30;97.90;;;7.04;57.76;97876.22;5146121;28;20309;-62
2022/02/20 01:36:09;;;;;;;3.67;2.73;;;6.30;98.30;;;7.09;57.28;97867.25;5141965;28;20427;-62
2022/02/20 01:38:42;;;;;;;3.63;2.60;;;6.40;98.10;;;7.08;58.09;97871.47;5139602;28;20575;-62
2022/02/20 01:41:17;;;;;;;3.07;2.77;;;6.30;98.50;;;7.07;57.94;97869.72;5139602;28;20224;-62
2022/02/20 01:43:53;;;;;;;3.60;2.77;;;6.30;98.70;;;7.09;57.69;97868.13;5141709;28;20216;-62
2022/02/20 01:46:27;;;;;;;5.77;3.37;;;6.30;98.80;;;7.04;58.22;97831.38;5136513;28;20262;-62
2022/02/20 01:49:00;;;;;;;4.23;2.80;;;6.20;99.10;;;7.01;58.13;97869.28;5138717;28;20196;-62
2022/02/20 01:51:34;;;;;;;2.73;2.40;;;6.30;99.40;;;7.06;58.08;97875.53;5140996;28;20216;-62
2022/02/20 01:54:07;;;;;;;4.37;2.90;;;6.30;99.50;;;7.14;58.97;97856.63;5137064;28;20222;-62
2022/02/20 01:56:41;;;;;;;3.53;2.47;;;6.20;99.80;;;7.01;59.24;97869.28;5141192;28;20210;-62
2022/02/20 01:59:14;;;;;;;3.87;2.97;;;6.20;99.80;;;7.11;59.11;97866.59;5140976;28;20555;-62
2022/02/20 02:01:47;;;;;;;2.90;2.60;;;6.30;99.80;;;7.04;59.35;97861.88;5143832;28;20224;-62
2022/02/20 02:04:21;;;;;;;3.50;2.53;;;6.20;99.90;;;7.00;59.46;97862.41;5138491;28;20299;-62
2022/02/20 02:06:56;;;;;;;3.83;2.60;;;6.10;99.90;;;6.99;59.54;97865.75;5141196;28;20212;-62
2022/02/20 02:09:29;;;;;;;4.00;2.90;;;6.10;99.90;;;7.08;59.86;97843.50;5137466;28;20199;-62
2022/02/20 02:12:02;;;;;;;5.17;2.90;;;6.30;99.90;;;7.01;60.35;97856.56;5140999;28;20633;-62
2022/02/20 02:14:54;;;;;;;4.07;2.73;;;6.20;99.90;;;7.06;60.10;97873.00;5144534;28;20203;-62
2022/02/20 02:17:28;;;;;;;5.03;2.70;;;6.30;99.90;;;7.02;60.36;97870.16;5138682;28;20218;-62
2022/02/20 02:20:01;;;;;;;5.83;2.90;;;6.30;99.90;;;6.87;60.61;97867.41;5137410;28;20211;-61
2022/02/20 02:22:36;;;;;;;6.40;3.10;;;6.30;99.90;;;6.89;61.61;97873.47;5138515;28;20220;-62
2022/02/20 02:25:10;;;;;;;6.03;2.93;;;6.20;99.90;;;6.94;61.91;97878.09;5140070;28;20210;-62
2022/02/20 02:27:43;;;;;;;6.10;3.10;;;6.20;99.90;;;6.84;63.22;97872.25;5138153;28;20210;-62
2022/02/20 02:30:16;;;;;;;4.03;3.20;;;6.20;99.90;;;6.90;62.51;97885.41;5140570;28;20197;-62
2022/02/20 02:32:49;;;;;;;5.43;3.00;;;6.20;99.90;;;6.92;62.19;97874.56;5140645;28;20219;-62
2022/02/20 02:35:23;;;;;;;3.30;2.33;;;6.20;99.90;;;6.88;62.42;97879.34;5138960;28;20208;-62
2022/02/20 02:37:58;;;;;;;3.87;3.00;;;6.10;99.90;;;6.85;62.80;97859.69;5139838;28;20668;-64
2022/02/20 02:40:32;;;;;;;4.43;2.77;;;6.10;99.90;;;6.78;64.16;97890.47;5140183;28;20231;-63
2022/02/20 02:43:05;;;;;;;4.43;2.83;;;6.00;99.90;;;6.85;63.51;97861.34;5141279;28;20278;-63
2022/02/20 02:45:38;;;;;;;3.17;2.67;;;6.00;99.90;;;6.87;62.94;97880.13;5138836;28;20200;-63
2022/02/20 02:48:11;;;;;;;4.33;2.73;;;6.10;99.90;;;6.85;63.22;97886.75;5137261;28;20652;-63
2022/02/20 02:50:46;;;;;;;3.77;2.77;;;6.10;99.90;;;6.93;64.05;97872.94;5139182;28;20311;-64
2022/02/20 02:53:21;;;;;;;4.83;3.20;;;6.00;99.90;;;6.88;63.58;97847.19;5141588;28;20235;-64
2022/02/20 02:55:54;;;;;;;5.10;3.00;;;6.10;99.90;;;6.86;63.52;97843.66;5140393;28;20201;-64
2022/02/20 02:58:28;;;;;;;5.00;2.83;;;6.10;99.90;;;6.90;64.38;97880.34;5139699;28;20215;-63
2022/02/20 03:01:01;;;;;;;5.70;3.20;;;6.10;99.90;;;6.76;63.31;97890.38;5137879;28;20231;-64
2022/02/20 03:03:34;;;;;;;4.03;3.30;;;6.10;99.90;;;6.90;63.82;97871.06;5138285;28;20642;-64
2022/02/20 03:06:09;;;;;;;3.17;2.43;;;6.00;99.90;;;6.91;64.13;97851.59;5138706;28;20618;-64
2022/02/20 03:08:43;;;;;;;6.03;2.87;;;6.10;99.90;;;6.79;64.28;97831.31;5138698;28;20207;-64
2022/02/20 03:11:16;;;;;;;5.07;2.97;;;6.10;99.90;;;6.82;64.56;97879.78;5140318;28;20191;-63
2022/02/20 03:13:50;;;;;;;4.20;2.80;;;6.20;99.90;;;6.90;64.63;97887.97;5142846;28;20224;-63
2022/02/20 03:16:23;;;;;;;4.60;2.57;;;6.10;99.90;;;6.85;65.39;97896.91;5143240;28;20678;-64
2022/02/20 03:18:57;;;;;;;4.07;2.77;;;6.10;99.90;;;6.85;64.68;97876.56;5147860;28;20208;-63
2022/02/20 03:21:30;;;;;;;3.20;2.67;;;6.10;99.90;;;6.80;65.50;97862.66;5142768;28;20235;-63
2022/02/20 03:24:05;;;;;;;3.60;2.73;;;6.10;99.90;;;6.75;64.90;97888.63;5142870;28;20224;-64
2022/02/20 03:26:39;;;;;;;4.80;2.80;;;6.10;99.90;;;6.75;65.69;97867.41;5142119;28;20548;-63
2022/02/20 03:29:12;;;;;;;5.10;2.43;;;6.10;99.90;;;6.73;65.32;97877.47;5144711;28;20226;-63
2022/02/20 03:31:45;;;;;;;3.13;2.73;;;6.00;99.90;;;6.79;65.46;97876.16;5143505;28;20592;-62
2022/02/20 03:34:18;;;;;;;5.20;3.00;;;6.10;99.90;;;6.77;64.99;97879.44;5147504;28;20223;-63
2022/02/20 03:36:51;;;;;;;2.93;2.60;;;6.20;99.90;;;6.77;65.03;97874.34;5139599;28;20200;-63
2022/02/20 03:39:26;;;;;;;3.60;2.03;;;6.20;99.90;;;6.88;64.51;97903.06;5143958;28;20203;-63
2022/02/20 03:42:02;;;;;;;5.33;2.63;;;6.20;99.90;;;6.88;65.27;97908.16;5141995;28;20302;-62
2022/02/20 03:44:35;;;;;;;4.77;2.57;;;6.20;99.90;;;6.91;65.23;97903.28;5143140;28;20652;-63
2022/02/20 03:47:08;;;;;;;4.67;2.53;;;6.20;99.90;;;6.97;65.39;97906.28;5143574;28;20196;-62
2022/02/20 03:49:41;;;;;;;2.93;2.73;;;6.20;99.90;;;6.97;65.18;97901.19;5142311;28;20204;-63
2022/02/20 03:52:14;;;;;;;3.70;2.77;;;6.20;99.90;;;6.93;64.69;97894.13;5142943;28;20211;-62
2022/02/20 03:54:49;;;;;;;4.67;2.37;;;6.20;99.90;;;6.95;65.55;97909.47;5143275;28;20664;-61
2022/02/20 03:57:22;;;;;;;3.50;2.47;;;6.20;99.90;;;6.92;65.82;97921.97;5140267;28;20211;-62
2022/02/20 03:59:55;;;;;;;3.00;2.30;;;6.20;99.90;;;6.84;65.81;97925.59;5142980;28;20200;-63
2022/02/20 04:02:30;;;;;;;3.27;2.47;;;6.20;99.90;;;6.91;66.04;97900.75;5140522;28;20238;-62
2022/02/20 04:05:04;;;;;;;4.17;2.47;;;6.10;99.90;;;7.06;65.24;97922.94;5142172;28;20210;-62
2022/02/20 04:07:42;;;;;;;3.80;2.60;;;6.10;99.90;;;6.95;65.68;97924.72;5142811;28;20300;-63
2022/02/20 04:10:17;;;;;;;3.87;2.60;;;6.20;99.90;;;6.97;65.30;97921.50;5138789;28;20200;-63
2022/02/20 04:12:50;;;;;;;3.93;2.40;;;6.20;99.90;;;7.09;65.25;97911.34;5142128;28;20223;-63
2022/02/20 04:15:23;;;;;;;2.80;2.60;;;6.20;99.90;;;7.05;65.77;97926.28;5144073;28;20219;-63
2022/02/20 04:17:56;;;;;;;2.83;2.50;;;6.30;99.90;;;7.10;67.05;97935.13;5141947;28;20394;-63
2022/02/20 04:20:29;;;;;;;3.70;2.57;;;6.30;99.90;;;7.03;67.51;97938.84;5141945;28;20211;-64
2022/02/20 04:23:03;;;;;;;4.33;2.40;;;6.30;99.90;;;6.99;68.65;97947.94;5142791;28;20232;-63
2022/02/20 04:25:37;;;;;;;3.03;2.73;;;6.20;99.90;;;6.96;68.65;97947.72;5142008;28;20203;-64
2022/02/20 04:28:11;;;;;;;4.27;2.30;;;6.20;99.90;;;6.90;68.93;97941.31;5140269;28;20207;-63
2022/02/20 04:30:44;;;;;;;3.33;2.63;;;6.10;99.90;;;7.06;67.87;97949.25;5134426;28;20199;-63
2022/02/20 04:33:18;;;;;;;2.70;2.50;;;6.20;99.90;;;7.07;68.31;97945.94;5136983;28;20215;-63
2022/02/20 04:35:51;;;;;;;2.60;2.40;;;6.20;99.90;;;7.06;67.50;97943.28;5142663;28;20796;-63
2022/02/20 04:38:24;;;;;;;4.47;2.43;;;6.30;99.90;;;7.12;68.19;97947.13;5140163;28;20204;-65
2022/02/20 04:41:00;;;;;;;3.27;2.40;;;6.20;99.90;;;7.08;67.60;97944.28;5141773;28;20226;-64
2022/02/20 04:43:33;;;;;;;2.67;2.23;;;6.20;99.90;;;7.16;67.36;97950.81;5138077;28;20234;-64
2022/02/20 04:46:06;;;;;;;2.33;2.23;;;6.40;99.90;;;7.15;67.45;97955.00;5138009;28;20200;-63
2022/02/20 04:48:39;;;;;;;2.10;2.00;;;6.40;99.90;;;7.16;68.83;97959.31;5141457;28;20200;-64
2022/02/20 04:51:12;;;;;;;2.27;2.07;;;6.40;99.90;;;7.08;70.68;97962.06;5141054;28;20214;-63
2022/02/20 04:53:45;;;;;;;2.37;2.13;;;6.30;99.90;;;7.02;71.81;97964.19;5140725;28;20216;-64
2022/02/20 04:56:19;;;;;;;2.43;2.23;;;6.20;99.90;;;6.86;73.36;97960.50;5138982;28;20580;-63
2022/02/20 04:58:52;;;;;;;2.87;2.20;;;6.20;99.90;;;6.92;72.42;97970.22;5141075;28;20207;-63
2022/02/20 05:01:26;;;;;;;2.07;1.87;;;6.20;99.90;;;6.87;73.06;97974.13;5137801;28;20207;-64
2022/02/20 05:03:59;;;;;;;2.40;1.83;;;6.10;99.90;;;6.84;73.20;97990.00;5138597;28;20224;-64
2022/02/20 05:06:32;;;;;;;2.10;2.00;;;6.10;99.90;;;6.80;74.51;97976.97;5139549;28;20204;-64
2022/02/20 05:09:06;;;;;;;3.03;2.73;;;6.00;99.90;;;6.77;73.93;97975.97;5142807;28;20192;-63
2022/02/20 05:11:40;;;;;;;2.63;2.10;;;6.00;99.90;;;6.67;73.96;97983.69;5139996;28;20203;-64
2022/02/20 05:14:13;;;;;;;2.30;2.07;;;6.00;99.90;;;6.79;73.76;97978.63;5137885;28;20246;-63
2022/02/20 05:16:46;;;;;;;2.60;2.20;;;6.00;99.90;;;6.81;73.21;97978.72;5142028;28;20200;-63
2022/02/20 05:19:19;;;;;;;2.10;2.00;;;6.10;99.90;;;6.73;73.48;97973.97;5137808;28;20226;-64
2022/02/20 05:21:52;;;;;;;2.30;2.20;;;6.10;99.90;;;6.75;73.63;97972.44;5139539;28;20234;-62
2022/02/20 05:24:25;;;;;;;2.10;2.00;;;6.10;99.90;;;6.79;73.01;97971.00;5139524;28;20207;-63
2022/02/20 05:27:00;;;;;;;2.67;2.47;;;6.10;99.90;;;6.86;73.78;97964.72;5140661;28;20206;-63
2022/02/20 05:29:33;;;;;;;2.27;2.07;;;6.10;99.90;;;6.85;73.56;97973.13;5140098;28;20210;-62
2022/02/20 05:32:07;;;;;;;2.50;2.30;;;6.00;99.90;;;6.88;73.45;97973.34;5139623;28;20204;-63
2022/02/20 05:34:40;;;;;;;2.30;2.20;;;6.00;99.90;;;6.83;73.44;97975.53;5141232;28;20199;-63
2022/02/20 05:37:13;;;;;;;2.20;2.10;;;6.00;99.90;;;6.75;72.17;97989.31;5138625;28;20769;-62
2022/02/20 05:39:47;;;;;;;2.23;2.03;;;6.10;99.90;;;6.76;73.34;97986.91;5144201;28;20200;-63
2022/02/20 05:42:21;;;;;;;2.73;2.47;;;6.10;99.90;;;6.82;72.95;97978.84;5138169;28;20232;-64
2022/02/20 05:44:54;;;;;;;2.47;2.27;;;6.10;99.90;;;6.82;73.09;97983.06;5141553;28;20210;-62
2022/02/20 05:47:28;;;;;;;2.60;2.40;;;6.10;99.90;;;6.85;73.26;97993.44;5141075;28;20254;-63
2022/02/20 05:50:01;;;;;;;3.37;2.23;;;6.10;99.90;;;6.95;72.55;97995.84;5138793;28;20298;-64
2022/02/20 05:52:35;;;;;;;2.40;2.20;;;6.20;99.90;;;6.88;72.49;97994.53;5140680;28;20226;-64
2022/02/20 05:55:10;;;;;;;2.40;2.13;;;6.10;99.90;;;6.88;73.08;97993.66;5136313;28;20195;-63
2022/02/20 05:57:47;;;;;;;2.33;2.20;;;6.10;99.90;;;6.96;72.96;97978.19;5138049;28;20203;-64
2022/02/20 06:00:22;;;;;;;2.40;2.30;;;6.10;99.90;;;6.94;73.25;97986.47;5138767;28;20668;-63
2022/02/20 06:02:56;;;;;;;3.17;2.33;;;6.00;99.90;;;6.92;72.98;97970.22;5139067;28;20223;-63
2022/02/20 06:05:29;;;;;;;2.43;2.23;;;6.10;99.90;;;6.91;73.07;97965.94;5142597;28;20192;-63
2022/02/20 06:08:02;;;;;;;2.30;2.10;;;6.10;99.90;;;6.97;72.03;97966.38;5139154;28;20211;-64
2022/02/20 06:10:35;;;;;;;3.13;2.47;;;6.20;99.90;;;6.94;72.90;97968.69;5135289;28;20264;-63
2022/02/20 06:13:10;;;;;;;2.70;2.03;;;6.20;99.90;;;6.87;73.49;97967.38;5131402;28;20219;-64
2022/02/20 06:15:43;;;;;;;2.67;2.47;;;6.10;99.90;;;6.92;72.81;97970.22;5141682;28;20203;-63
2022/02/20 06:18:16;;;;;;;2.60;2.20;;;6.10;99.90;;;6.97;73.23;97974.00;5140098;28;20212;-62
2022/02/20 06:20:49;;;;;;;2.23;2.13;;;6.10;99.90;;;6.96;72.21;97970.56;5139812;28;20196;-63
2022/02/20 06:23:22;;;;;;;2.10;1.83;;;6.10;99.90;;;6.92;72.54;97980.41;5137374;28;20238;-63
2022/02/20 06:25:55;;;;;;;2.43;2.23;;;6.20;99.90;;;6.83;73.67;97994.97;5138500;28;20199;-63
2022/02/20 06:28:30;;;;;;;2.93;2.40;;;6.10;99.90;;;6.88;72.70;98002.16;5137030;28;20225;-63
2022/02/20 06:31:05;;;;;;;2.93;2.30;;;6.20;99.90;;;6.97;72.61;98004.47;5134411;28;20608;-64
2022/02/20 06:33:38;;;;;;;3.00;2.40;;;6.10;99.90;;;7.04;72.88;98011.81;5133236;28;20224;-63
2022/02/20 06:36:12;;;;;;;2.33;2.13;;;6.10;99.90;;;6.96;73.42;98015.44;5134862;28;20572;-63
2022/02/20 06:38:45;;;;;;;3.17;2.33;;;6.10;99.90;;;7.01;73.23;98016.66;5133761;28;20200;-63
2022/02/20 06:41:18;;;;;;;2.53;2.43;;;6.10;99.90;;;7.11;72.54;98001.28;5138734;28;20197;-63
2022/02/20 06:43:52;;;;;;;2.60;2.30;;;6.20;99.90;;;7.08;72.36;97998.53;5138152;28;20601;-63
2022/02/20 06:46:25;;;;;;;2.33;2.23;;;6.10;99.90;;;7.17;71.73;98006.81;5140930;28;20206;-63
2022/02/20 06:48:58;;;;;;;2.13;2.03;;;6.30;99.90;;;7.10;71.86;98001.19;5144365;28;20202;-63
2022/02/20 06:51:31;;;;;;;2.70;2.50;;;6.30;99.90;;;7.18;71.10;98007.69;5145129;28;20199;-63
2022/02/20 06:54:05;;;;;;;2.60;2.50;;;6.40;99.90;;;7.22;71.20;98013.13;5139157;28;20590;-63
2022/02/20 06:56:38;;;;;;;2.00;2.00;;;6.40;99.90;;;7.28;70.77;98024.50;5146887;28;20203;-63
2022/02/20 06:59:13;;;;;;;2.17;2.07;;;6.40;99.90;;;7.27;71.16;98026.19;5144182;28;20204;-63
2022/02/20 07:01:46;;;;;;;2.50;2.40;;;6.40;99.90;;;7.37;70.56;98037.88;5142360;28;20199;-63
2022/02/20 07:04:19;;;;;;;2.40;2.20;;;6.50;99.90;;;7.30;70.57;98035.69;5143799;28;20231;-62
2022/02/20 07:06:52;;;;;;;2.60;2.50;;;6.50;99.90;;;7.42;70.47;98016.22;5140701;28;20710;-61
2022/02/20 07:09:25;;;;;;;2.63;2.37;;;6.50;99.90;;;7.29;70.76;98022.06;5141906;28;20210;-62
2022/02/20 07:11:58;;;;;;;2.30;2.10;;;6.50;99.90;;;7.33;70.81;98028.28;5145395;28;20202;-61
2022/02/20 07:14:33;;;;;;;2.97;2.50;;;6.40;99.90;;;7.38;70.52;98034.56;5145752;28;20204;-64
2022/02/20 07:17:06;;;;;;;2.07;1.80;;;6.40;99.90;;;7.40;70.57;98033.00;5144812;28;20284;-62
2022/02/20 07:19:39;;;;;;;2.90;2.07;;;6.50;99.90;;;7.55;69.70;98053.56;5144782;28;20196;-61
2022/02/20 07:22:12;;;;;;;2.27;2.07;;;6.60;99.90;;;7.42;70.46;98049.28;5142064;28;20705;-61
2022/02/20 07:24:45;;;;;;;2.20;2.00;;;6.50;99.90;;;7.40;70.56;98055.91;5144649;28;20224;-62
2022/02/20 07:27:18;;;;;;;2.00;1.90;;;6.50;99.90;;;7.44;70.72;98053.69;5142281;28;20202;-61
2022/02/20 07:29:53;;;;;;;2.77;2.10;;;6.50;99.90;;;7.50;69.47;98039.63;5142544;28;20202;-61
2022/02/20 07:32:26;;;;;;;2.17;1.83;;;6.60;99.90;;;7.58;69.38;98047.06;5141629;28;20223;-60
2022/02/20 07:34:59;;;;;;;2.23;2.13;;;6.60;99.90;;;7.54;69.81;98051.81;5143081;28;20204;-60
2022/02/20 07:37:33;;;;;;;2.30;2.10;;;6.50;99.90;;;7.58;71.07;98048.69;5143705;28;20212;-60
2022/02/20 07:40:09;;;;;;;2.20;2.00;;;6.50;99.90;;;7.65;70.12;98048.38;5142075;28;20196;-60
2022/02/20 07:42:42;;;;;;;3.43;2.07;;;6.60;99.90;;;7.54;69.90;98044.19;5142407;28;20219;-61
2022/02/20 07:45:16;;;;;;;1.90;1.80;;;6.60;99.90;;;7.58;69.79;98054.69;5139822;28;20220;-63
2022/02/20 07:47:52;;;;;;;2.30;2.20;;;6.60;99.90;;;7.54;70.25;98050.16;5139073;28;20205;-62
2022/02/20 07:50:28;;;;;;;2.13;2.03;;;6.60;99.90;;;7.73;69.55;98044.72;5141809;28;20192;-64
2022/02/20 07:53:04;;;;;;;2.20;2.00;;;6.70;99.90;;;7.73;69.26;98048.94;5143408;28;20220;-61
2022/02/20 07:55:37;;;;;;;1.70;1.60;;;6.70;99.90;;;7.57;69.19;98037.66;5142853;28;20202;-63
2022/02/20 07:58:12;;;;;;;2.20;2.00;;;6.80;99.90;;;7.65;69.53;98041.63;5143194;28;20200;-62
2022/02/20 08:00:46;;;;;;;2.67;2.10;;;6.80;99.90;;;7.61;69.43;98043.84;5143120;28;20200;-61
2022/02/20 08:03:19;;;;;;;2.03;1.93;;;6.80;99.90;;;7.68;69.06;98020.63;5142321;28;20770;-62
2022/02/20 08:05:53;;;;;;;2.37;2.17;;;6.90;99.90;;;7.80;69.08;98018.91;5141706;28;20208;-63
2022/02/20 08:08:26;;;;;;;2.30;2.20;;;6.90;99.90;;;7.84;68.51;98032.72;5146930;28;20210;-63
2022/02/20 08:11:00;;;;;;;1.90;1.80;;;7.10;99.90;;;7.80;68.41;98031.66;5146946;28;20678;-61
2022/02/20 08:13:33;;;;;;;2.03;1.83;;;7.10;99.90;;;7.94;68.39;98032.63;5148170;28;20723;-59
2022/02/20 08:16:08;;;;;;;1.80;1.70;;;7.10;99.90;;;7.90;68.17;98038.28;5141149;28;20206;-62
2022/02/20 08:18:41;;;;;;;2.03;1.93;;;7.10;99.90;;;7.89;68.61;98031.41;5137898;28;20203;-61
2022/02/20 08:21:14;;;;;;;1.90;1.80;;;7.10;99.90;;;7.97;68.07;98022.66;5141591;28;20207;-62
2022/02/20 08:23:50;;;;;;;2.20;2.10;;;7.10;99.90;;;8.03;67.85;98020.53;5142456;28;20227;-61
2022/02/20 08:26:23;;;;;;;2.47;2.30;;;7.30;99.90;;;8.08;67.12;98031.03;5142306;28;20200;-62
2022/02/20 08:28:56;;;;;;;2.13;2.00;;;7.40;99.90;;;8.19;66.90;98021.59;5145014;28;20203;-62
2022/02/20 08:31:31;;;;;;;2.67;2.47;;;7.40;99.90;;;8.29;66.70;98023.97;5139650;28;20586;-63
2022/02/20 08:34:04;;;;;;;2.27;2.17;;;7.50;99.90;;;8.38;67.36;98027.16;5136220;28;21684;-64
2022/02/20 08:36:38;;;;;;;2.30;1.93;;;7.60;99.90;;;8.38;65.62;98029.69;5140876;28;20214;-63
2022/02/20 08:39:11;;;;;;;2.03;1.93;;;7.70;99.90;;;8.35;65.95;98035.50;5141162;28;20298;-62
2022/02/20 08:41:45;;;;;;;2.40;2.20;;;7.60;99.90;;;8.41;65.96;98034.16;5142548;28;20628;-62
2022/02/20 08:44:18;;;;;;;2.10;2.00;;;7.60;99.90;;;8.43;65.16;98043.66;5138944;28;20228;-63
2022/02/20 08:46:52;;;;;;;2.37;2.23;;;7.60;99.90;;;8.49;65.00;98046.63;5139091;28;20196;-63
2022/02/20 08:49:25;;;;;;;2.23;2.10;;;7.80;99.90;;;8.42;65.31;98056.31;5136289;28;20214;-62
2022/02/20 08:51:59;;;;;;;2.23;1.93;;;7.70;99.90;;;8.48;64.89;98049.09;5136672;28;20204;-62
2022/02/20 08:54:32;;;;;;;2.60;2.40;;;7.70;99.90;;;8.38;65.10;98061.91;5144061;28;20199;-62
2022/02/20 08:57:08;;;;;;;1.87;1.83;;;7.70;99.90;;;8.51;64.51;98056.94;5143496;28;20200;-63
2022/02/20 08:59:41;;;;;;;2.37;2.20;;;7.70;99.90;;;8.54;64.82;98042.72;5141056;28;20204;-62
2022/02/20 09:02:16;;;;;;;2.30;2.10;;;7.70;99.90;;;8.65;64.40;98051.09;5142554;28;20314;-63
2022/02/20 09:04:49;;;;;;;4.27;2.23;;;7.80;99.90;;;8.64;64.07;98053.53;5144106;28;20227;-63
2022/02/20 09:07:22;;;;;;;2.50;2.30;;;7.70;99.90;;;8.61;64.41;98050.78;5143744;28;20743;-64
2022/02/20 09:09:55;;;;;;;2.47;2.27;;;7.70;99.90;;;8.54;65.07;98042.72;5144631;28;20567;-63
2022/02/20 09:12:28;;;;;;;3.23;2.40;;;7.70;99.90;;;8.48;65.04;98049.09;5137813;28;20228;-64
2022/02/20 09:15:02;;;;;;;2.30;2.20;;;7.70;99.90;;;8.46;65.46;98053.19;5139329;28;20203;-64
2022/02/20 09:17:37;;;;;;;2.57;2.40;;;7.70;99.90;;;8.63;64.62;98045.00;5134410;28;20937;-64
2022/02/20 09:20:12;;;;;;;2.33;2.13;;;7.70;99.90;;;8.72;63.58;98037.97;5136099;28;20591;-63
2022/02/20 09:22:45;;;;;;;2.23;2.13;;;7.80;99.90;;;8.71;63.60;98030.25;5139189;28;20231;-63
2022/02/20 09:25:19;;;;;;;2.37;1.80;;;7.90;99.90;;;8.80;63.05;98036.84;5141356;28;21312;-63
2022/02/20 09:27:52;;;;;;;2.70;2.07;;;7.90;99.90;;;8.83;63.59;98040.38;5145089;28;20196;-64
2022/02/20 09:30:25;;;;;;;2.10;2.00;;;7.90;99.90;;;8.80;63.17;98043.59;5144731;28;20205;-64
2022/02/20 09:32:59;;;;;;;2.70;2.50;;;7.90;99.90;;;8.80;62.95;98039.38;5139158;28;20228;-63
2022/02/20 09:35:32;;;;;;;2.00;1.90;;;7.80;99.90;;;8.84;63.38;98035.38;5135265;28;20206;-62
2022/02/20 09:38:06;;;;;;;1.93;1.83;;;7.90;99.90;;;8.86;62.31;98030.38;5142065;28;20195;-63
2022/02/20 09:40:39;;;;;;;2.37;1.97;;;8.10;99.90;;;8.76;62.92;98023.81;5137904;28;20226;-61
2022/02/20 09:43:17;;;;;;;1.67;1.57;;;8.00;99.90;;;8.87;63.15;98027.03;5138741;28;20234;-62
2022/02/20 09:45:52;;;;;;;2.40;2.20;;;8.10;99.90;;;8.90;62.85;98023.06;5143710;28;20231;-61
2022/02/20 09:48:27;;;;;;;2.17;2.00;;;8.10;99.90;;;8.99;62.61;98035.53;5145205;28;20294;-63
2022/02/20 09:51:01;;;;;;;2.00;1.90;;;8.20;99.90;;;8.95;62.10;98028.44;5145704;28;20530;-62
2022/02/20 09:53:37;;;;;;;2.27;1.93;;;8.20;99.90;;;8.90;62.78;98025.59;5146644;28;20231;-62
2022/02/20 09:56:10;;;;;;;2.10;2.00;;;8.20;99.90;;;8.96;62.77;98023.44;5140535;28;20200;-63
2022/02/20 09:58:44;;;;;;;2.40;2.20;;;8.20;99.90;;;9.02;62.18;98022.97;5144563;28;20213;-61
2022/02/20 10:01:17;;;;;;;2.70;2.50;;;8.30;99.90;;;8.99;62.79;98012.56;5134668;28;20587;-62
2022/02/20 10:03:52;;;;;;;2.20;2.10;;;8.40;99.90;;;8.99;62.29;98010.03;5140592;28;20258;-62
2022/02/20 10:06:27;;;;;;;1.93;1.83;;;8.40;99.90;;;9.07;63.19;98010.50;5140469;28;20314;-62
2022/02/20 10:09:00;;;;;;;1.90;1.80;;;8.30;99.90;;;9.17;62.45;97995.91;5139774;28;20191;-62
2022/02/20 10:11:33;;;;;;;2.20;2.03;;;8.50;99.90;;;9.22;62.07;97996.22;5136270;28;20203;-63
2022/02/20 10:14:18;;;;;;;2.33;2.10;;;8.50;99.90;;;9.25;62.31;97991.31;5136817;28;20588;-62
2022/02/20 10:16:52;;;;;;;1.70;1.60;;;8.60;99.90;;;9.34;62.37;97984.25;5136110;28;20196;-62
2022/02/20 10:19:26;;;;;;;2.00;1.90;;;8.60;99.90;;;9.44;62.41;97988.25;5141245;28;20204;-63
2022/02/20 10:22:05;;;;;;;2.00;1.90;;;8.60;99.90;;;9.47;61.67;97981.69;5141901;28;20654;-63
2022/02/20 10:24:38;;;;;;;2.07;1.90;;;8.70;99.90;;;9.75;60.42;97990.19;5146816;28;20250;-63
2022/02/20 10:27:11;;;;;;;2.40;2.20;;;8.90;99.90;;;9.80;61.05;97989.69;5146488;28;20203;-63
2022/02/20 10:29:44;;;;;;;1.70;1.60;;;9.10;99.90;;;9.89;60.66;97992.78;5145255;28;20196;-63
2022/02/20 10:32:22;;;;;;;1.77;1.70;;;9.20;99.90;;;9.93;61.33;97992.22;5145748;28;20223;-63
2022/02/20 10:34:57;;;;;;;1.80;1.70;;;9.30;99.90;;;10.10;60.28;97985.59;5145084;28;20198;-63
2022/02/20 10:37:33;;;;;;;1.80;1.70;;;9.40;99.90;;;10.16;60.23;97990.19;5144616;28;20572;-63
2022/02/20 10:40:27;;;;;;;1.80;1.70;;;9.40;99.90;;;10.26;58.64;97992.47;5144807;28;20196;-62
2022/02/20 10:43:04;;;;;;;2.03;1.93;;;9.50;99.90;;;10.25;59.18;97995.84;5145385;28;20227;-63
2022/02/20 10:45:40;;;;;;;2.10;2.00;;;9.60;99.90;;;10.35;58.76;97998.16;5142048;28;20555;-63
2022/02/20 10:48:19;;;;;;;2.07;1.93;;;9.60;99.90;;;10.34;59.56;97993.88;5141970;28;20254;-63
2022/02/20 10:50:59;;;;;;;2.13;2.03;;;9.50;99.90;;;10.38;58.35;97990.69;5140756;28;20204;-62
2022/02/20 10:53:33;;;;;;;2.10;1.90;;;9.60;99.90;;;10.26;59.83;97989.94;5152730;28;20740;-62
2022/02/20 10:56:07;;;;;;;2.03;1.93;;;9.50;99.90;;;10.29;60.10;97972.25;5147544;28;20195;-62
2022/02/20 10:58:44;;;;;;;1.77;1.77;;;9.50;99.90;;;10.29;58.84;97972.25;5143652;28;20214;-63
2022/02/20 11:01:22;;;;;;;1.87;1.77;;;9.60;99.90;;;10.45;59.00;97957.88;5142176;28;20203;-62